sensor_id;sensor_type;location;lat;lon;timestamp;temperature;humidity
74416;SHT31;62850;42.428;25.618;2023-04-25T00:01:04;13.79;76.04
74416;SHT31;62850;42.428;25.618;2023-04-25T00:03:34;13.79;76.06
74416;SHT31;62850;42.428;25.618;2023-04-25T00:06:00;13.69;76.25
74416;SHT31;62850;42.428;25.618;2023-04-25T00:08:28;13.75;76.00
74416;SHT31;62850;42.428;25.618;2023-04-25T00:10:53;13.78;76.25
74416;SHT31;62850;42.428;25.618;2023-04-25T00:13:19;13.78;76.70
74416;SHT31;62850;42.428;25.618;2023-04-25T00:15:45;13.79;77.24
74416;SHT31;62850;42.428;25.618;2023-04-25T00:18:11;13.87;77.37
74416;SHT31;62850;42.428;25.618;2023-04-25T00:20:37;13.86;77.18
74416;SHT31;62850;42.428;25.618;2023-04-25T00:23:02;13.89;77.06
74416;SHT31;62850;42.428;25.618;2023-04-25T00:25:28;13.95;77.57
74416;SHT31;62850;42.428;25.618;2023-04-25T00:27:54;13.95;77.84
74416;SHT31;62850;42.428;25.618;2023-04-25T00:30:20;13.98;77.71
74416;SHT31;62850;42.428;25.618;2023-04-25T00:32:45;13.95;78.35
74416;SHT31;62850;42.428;25.618;2023-04-25T00:35:11;13.87;77.96
74416;SHT31;62850;42.428;25.618;2023-04-25T00:37:37;13.81;78.82
74416;SHT31;62850;42.428;25.618;2023-04-25T00:40:05;13.73;78.64
74416;SHT31;62850;42.428;25.618;2023-04-25T00:42:31;13.76;79.06
74416;SHT31;62850;42.428;25.618;2023-04-25T00:44:58;13.65;79.07
74416;SHT31;62850;42.428;25.618;2023-04-25T00:47:25;13.61;78.89
74416;SHT31;62850;42.428;25.618;2023-04-25T00:49:50;13.62;79.11
74416;SHT31;62850;42.428;25.618;2023-04-25T00:52:16;13.61;79.25
74416;SHT31;62850;42.428;25.618;2023-04-25T00:54:42;13.55;79.25
74416;SHT31;62850;42.428;25.618;2023-04-25T00:57:08;13.58;79.43
74416;SHT31;62850;42.428;25.618;2023-04-25T00:59:33;13.55;79.46
74416;SHT31;62850;42.428;25.618;2023-04-25T01:01:59;13.52;79.47
74416;SHT31;62850;42.428;25.618;2023-04-25T01:04:27;13.55;79.50
74416;SHT31;62850;42.428;25.618;2023-04-25T01:06:53;13.55;79.76
74416;SHT31;62850;42.428;25.618;2023-04-25T01:09:19;13.45;79.90
74416;SHT31;62850;42.428;25.618;2023-04-25T01:11:45;13.43;80.02
74416;SHT31;62850;42.428;25.618;2023-04-25T01:14:11;13.41;79.99
74416;SHT31;62850;42.428;25.618;2023-04-25T01:16:36;13.41;80.19
74416;SHT31;62850;42.428;25.618;2023-04-25T01:19:07;13.38;80.41
74416;SHT31;62850;42.428;25.618;2023-04-25T01:21:34;13.34;80.36
74416;SHT31;62850;42.428;25.618;2023-04-25T01:23:59;13.27;80.38
74416;SHT31;62850;42.428;25.618;2023-04-25T01:26:25;13.13;80.77
74416;SHT31;62850;42.428;25.618;2023-04-25T01:28:51;13.10;80.67
74416;SHT31;62850;42.428;25.618;2023-04-25T01:31:18;13.00;80.11
74416;SHT31;62850;42.428;25.618;2023-04-25T01:33:44;12.93;80.58
74416;SHT31;62850;42.428;25.618;2023-04-25T01:36:10;12.94;80.51
74416;SHT31;62850;42.428;25.618;2023-04-25T01:38:36;12.93;80.44
74416;SHT31;62850;42.428;25.618;2023-04-25T01:41:01;12.89;80.69
74416;SHT31;62850;42.428;25.618;2023-04-25T01:43:27;12.84;80.53
74416;SHT31;62850;42.428;25.618;2023-04-25T01:45:53;12.73;81.23
74416;SHT31;62850;42.428;25.618;2023-04-25T01:48:18;12.66;81.12
74416;SHT31;62850;42.428;25.618;2023-04-25T01:50:44;12.59;81.44
74416;SHT31;62850;42.428;25.618;2023-04-25T01:53:12;12.55;81.58
74416;SHT31;62850;42.428;25.618;2023-04-25T01:55:38;12.48;81.75
74416;SHT31;62850;42.428;25.618;2023-04-25T01:58:04;12.41;81.82
74416;SHT31;62850;42.428;25.618;2023-04-25T02:00:34;12.31;81.87
74416;SHT31;62850;42.428;25.618;2023-04-25T02:03:00;12.28;82.19
74416;SHT31;62850;42.428;25.618;2023-04-25T02:05:26;12.10;82.61
74416;SHT31;62850;42.428;25.618;2023-04-25T02:07:51;12.13;82.64
74416;SHT31;62850;42.428;25.618;2023-04-25T02:10:17;12.08;82.68
74416;SHT31;62850;42.428;25.618;2023-04-25T02:12:42;12.08;82.82
74416;SHT31;62850;42.428;25.618;2023-04-25T02:15:08;12.10;82.65
74416;SHT31;62850;42.428;25.618;2023-04-25T02:17:34;12.11;82.58
74416;SHT31;62850;42.428;25.618;2023-04-25T02:19:59;12.11;82.68
74416;SHT31;62850;42.428;25.618;2023-04-25T02:22:25;12.05;82.93
74416;SHT31;62850;42.428;25.618;2023-04-25T02:24:52;12.01;82.62
74416;SHT31;62850;42.428;25.618;2023-04-25T02:27:18;12.02;82.46
74416;SHT31;62850;42.428;25.618;2023-04-25T02:29:43;12.01;82.82
74416;SHT31;62850;42.428;25.618;2023-04-25T02:32:09;12.02;82.33
74416;SHT31;62850;42.428;25.618;2023-04-25T02:34:34;11.87;82.23
74416;SHT31;62850;42.428;25.618;2023-04-25T02:37:00;11.87;82.66
74416;SHT31;62850;42.428;25.618;2023-04-25T02:39:25;11.93;82.38
74416;SHT31;62850;42.428;25.618;2023-04-25T02:41:52;11.98;82.42
74416;SHT31;62850;42.428;25.618;2023-04-25T02:44:17;11.95;82.73
74416;SHT31;62850;42.428;25.618;2023-04-25T02:46:43;11.93;81.75
74416;SHT31;62850;42.428;25.618;2023-04-25T02:49:08;11.88;82.04
74416;SHT31;62850;42.428;25.618;2023-04-25T02:51:34;11.94;82.52
74416;SHT31;62850;42.428;25.618;2023-04-25T02:54:00;11.94;82.60
74416;SHT31;62850;42.428;25.618;2023-04-25T02:56:25;11.99;82.26
74416;SHT31;62850;42.428;25.618;2023-04-25T02:58:52;12.05;82.45
74416;SHT31;62850;42.428;25.618;2023-04-25T03:01:17;12.14;82.14
74416;SHT31;62850;42.428;25.618;2023-04-25T03:03:43;12.18;82.12
74416;SHT31;62850;42.428;25.618;2023-04-25T03:06:08;12.17;82.16
74416;SHT31;62850;42.428;25.618;2023-04-25T03:08:34;12.18;82.24
74416;SHT31;62850;42.428;25.618;2023-04-25T03:10:59;12.20;82.11
74416;SHT31;62850;42.428;25.618;2023-04-25T03:13:25;12.18;82.11
74416;SHT31;62850;42.428;25.618;2023-04-25T03:15:52;12.25;81.76
74416;SHT31;62850;42.428;25.618;2023-04-25T03:18:18;12.29;81.59
74416;SHT31;62850;42.428;25.618;2023-04-25T03:20:43;12.34;81.74
74416;SHT31;62850;42.428;25.618;2023-04-25T03:23:09;12.34;81.60
74416;SHT31;62850;42.428;25.618;2023-04-25T03:25:34;12.28;81.90
74416;SHT31;62850;42.428;25.618;2023-04-25T03:28:00;12.18;82.20
74416;SHT31;62850;42.428;25.618;2023-04-25T03:30:25;12.17;82.27
74416;SHT31;62850;42.428;25.618;2023-04-25T03:32:51;12.18;82.30
74416;SHT31;62850;42.428;25.618;2023-04-25T03:35:16;12.21;82.24
74416;SHT31;62850;42.428;25.618;2023-04-25T03:37:42;12.26;82.04
74416;SHT31;62850;42.428;25.618;2023-04-25T03:40:10;12.24;82.20
74416;SHT31;62850;42.428;25.618;2023-04-25T03:42:36;12.14;82.28
74416;SHT31;62850;42.428;25.618;2023-04-25T03:45:01;12.08;82.14
74416;SHT31;62850;42.428;25.618;2023-04-25T03:47:27;12.14;82.11
74416;SHT31;62850;42.428;25.618;2023-04-25T03:49:52;12.24;81.87
74416;SHT31;62850;42.428;25.618;2023-04-25T03:52:18;12.28;81.65
74416;SHT31;62850;42.428;25.618;2023-04-25T03:54:43;12.32;81.81
74416;SHT31;62850;42.428;25.618;2023-04-25T03:57:09;12.26;81.61
74416;SHT31;62850;42.428;25.618;2023-04-25T03:59:35;12.29;81.24
74416;SHT31;62850;42.428;25.618;2023-04-25T04:02:00;12.36;80.92
74416;SHT31;62850;42.428;25.618;2023-04-25T04:04:26;12.39;81.31
74416;SHT31;62850;42.428;25.618;2023-04-25T04:06:51;12.45;81.53
74416;SHT31;62850;42.428;25.618;2023-04-25T04:09:17;12.49;81.23
74416;SHT31;62850;42.428;25.618;2023-04-25T04:11:43;12.56;80.83
74416;SHT31;62850;42.428;25.618;2023-04-25T04:14:09;12.56;80.78
74416;SHT31;62850;42.428;25.618;2023-04-25T04:16:35;12.57;80.94
74416;SHT31;62850;42.428;25.618;2023-04-25T04:19:00;12.50;81.13
74416;SHT31;62850;42.428;25.618;2023-04-25T04:21:26;12.55;81.36
74416;SHT31;62850;42.428;25.618;2023-04-25T04:23:52;12.59;81.18
74416;SHT31;62850;42.428;25.618;2023-04-25T04:26:20;12.56;81.04
74416;SHT31;62850;42.428;25.618;2023-04-25T04:28:49;12.50;81.08
74416;SHT31;62850;42.428;25.618;2023-04-25T04:31:16;12.53;80.85
74416;SHT31;62850;42.428;25.618;2023-04-25T04:33:44;12.59;80.79
74416;SHT31;62850;42.428;25.618;2023-04-25T04:36:10;12.63;80.72
74416;SHT31;62850;42.428;25.618;2023-04-25T04:38:35;12.66;80.38
74416;SHT31;62850;42.428;25.618;2023-04-25T04:41:01;12.75;80.48
74416;SHT31;62850;42.428;25.618;2023-04-25T04:43:27;12.67;80.11
74416;SHT31;62850;42.428;25.618;2023-04-25T04:45:53;12.62;80.36
74416;SHT31;62850;42.428;25.618;2023-04-25T04:48:21;12.67;80.01
74416;SHT31;62850;42.428;25.618;2023-04-25T04:50:47;12.60;80.14
74416;SHT31;62850;42.428;25.618;2023-04-25T04:53:12;12.59;80.10
74416;SHT31;62850;42.428;25.618;2023-04-25T04:55:38;12.67;79.38
74416;SHT31;62850;42.428;25.618;2023-04-25T04:58:06;12.77;79.05
74416;SHT31;62850;42.428;25.618;2023-04-25T05:00:32;12.84;79.16
74416;SHT31;62850;42.428;25.618;2023-04-25T05:02:58;12.90;79.13
74416;SHT31;62850;42.428;25.618;2023-04-25T05:05:24;12.97;79.15
74416;SHT31;62850;42.428;25.618;2023-04-25T05:07:50;13.04;79.07
74416;SHT31;62850;42.428;25.618;2023-04-25T05:10:16;13.15;78.74
74416;SHT31;62850;42.428;25.618;2023-04-25T05:12:42;13.25;78.56
74416;SHT31;62850;42.428;25.618;2023-04-25T05:15:08;13.27;78.23
74416;SHT31;62850;42.428;25.618;2023-04-25T05:17:33;13.37;77.38
74416;SHT31;62850;42.428;25.618;2023-04-25T05:19:59;13.40;77.42
74416;SHT31;62850;42.428;25.618;2023-04-25T05:22:25;13.41;77.07
74416;SHT31;62850;42.428;25.618;2023-04-25T05:24:51;13.45;77.08
74416;SHT31;62850;42.428;25.618;2023-04-25T05:27:17;13.51;76.88
74416;SHT31;62850;42.428;25.618;2023-04-25T05:29:43;13.58;76.65
74416;SHT31;62850;42.428;25.618;2023-04-25T05:32:09;13.65;76.54
74416;SHT31;62850;42.428;25.618;2023-04-25T05:34:35;13.59;76.15
74416;SHT31;62850;42.428;25.618;2023-04-25T05:37:00;13.66;76.38
74416;SHT31;62850;42.428;25.618;2023-04-25T05:39:26;13.78;76.49
74416;SHT31;62850;42.428;25.618;2023-04-25T05:41:52;13.87;76.55
74416;SHT31;62850;42.428;25.618;2023-04-25T05:44:17;13.85;76.47
74416;SHT31;62850;42.428;25.618;2023-04-25T05:46:43;13.87;76.26
74416;SHT31;62850;42.428;25.618;2023-04-25T05:49:08;13.90;76.13
74416;SHT31;62850;42.428;25.618;2023-04-25T05:51:34;13.99;76.16
74416;SHT31;62850;42.428;25.618;2023-04-25T05:53:59;14.10;76.31
74416;SHT31;62850;42.428;25.618;2023-04-25T05:56:25;14.26;76.25
74416;SHT31;62850;42.428;25.618;2023-04-25T05:58:51;14.38;75.97
74416;SHT31;62850;42.428;25.618;2023-04-25T06:01:16;14.40;75.40
74416;SHT31;62850;42.428;25.618;2023-04-25T06:03:42;14.33;75.00
74416;SHT31;62850;42.428;25.618;2023-04-25T06:06:08;14.37;74.98
74416;SHT31;62850;42.428;25.618;2023-04-25T06:08:34;14.47;74.27
74416;SHT31;62850;42.428;25.618;2023-04-25T06:11:00;14.57;73.92
74416;SHT31;62850;42.428;25.618;2023-04-25T06:13:25;14.68;73.23
74416;SHT31;62850;42.428;25.618;2023-04-25T06:15:51;14.74;72.79
74416;SHT31;62850;42.428;25.618;2023-04-25T06:18:16;14.84;73.07
74416;SHT31;62850;42.428;25.618;2023-04-25T06:20:42;14.91;72.98
74416;SHT31;62850;42.428;25.618;2023-04-25T06:23:07;14.92;72.15
74416;SHT31;62850;42.428;25.618;2023-04-25T06:25:33;15.02;71.58
74416;SHT31;62850;42.428;25.618;2023-04-25T06:27:58;15.08;71.51
74416;SHT31;62850;42.428;25.618;2023-04-25T06:30:25;15.15;71.61
74416;SHT31;62850;42.428;25.618;2023-04-25T06:32:51;15.16;71.87
74416;SHT31;62850;42.428;25.618;2023-04-25T06:35:18;15.19;72.51
74416;SHT31;62850;42.428;25.618;2023-04-25T06:37:44;15.19;72.71
74416;SHT31;62850;42.428;25.618;2023-04-25T06:40:09;15.21;72.87
74416;SHT31;62850;42.428;25.618;2023-04-25T06:42:35;15.25;72.89
74416;SHT31;62850;42.428;25.618;2023-04-25T06:45:01;15.21;72.41
74416;SHT31;62850;42.428;25.618;2023-04-25T06:47:26;15.29;72.59
74416;SHT31;62850;42.428;25.618;2023-04-25T06:49:52;15.33;72.80
74416;SHT31;62850;42.428;25.618;2023-04-25T06:52:17;15.39;72.71
74416;SHT31;62850;42.428;25.618;2023-04-25T06:54:43;15.40;72.71
74416;SHT31;62850;42.428;25.618;2023-04-25T06:57:09;15.39;72.59
74416;SHT31;62850;42.428;25.618;2023-04-25T06:59:34;15.38;72.73
74416;SHT31;62850;42.428;25.618;2023-04-25T07:02:00;15.30;72.50
74416;SHT31;62850;42.428;25.618;2023-04-25T07:04:25;15.28;72.93
74416;SHT31;62850;42.428;25.618;2023-04-25T07:06:51;15.16;72.32
74416;SHT31;62850;42.428;25.618;2023-04-25T07:09:16;15.01;72.96
74416;SHT31;62850;42.428;25.618;2023-04-25T07:11:42;15.01;72.68
74416;SHT31;62850;42.428;25.618;2023-04-25T07:14:07;15.01;73.04
74416;SHT31;62850;42.428;25.618;2023-04-25T07:16:33;15.09;72.99
74416;SHT31;62850;42.428;25.618;2023-04-25T07:18:58;15.16;74.00
74416;SHT31;62850;42.428;25.618;2023-04-25T07:21:25;15.28;72.45
74416;SHT31;62850;42.428;25.618;2023-04-25T07:23:50;15.38;73.60
74416;SHT31;62850;42.428;25.618;2023-04-25T07:26:16;15.49;73.05
74416;SHT31;62850;42.428;25.618;2023-04-25T07:28:42;15.57;71.73
74416;SHT31;62850;42.428;25.618;2023-04-25T07:31:08;15.60;71.52
74416;SHT31;62850;42.428;25.618;2023-04-25T07:33:34;15.57;71.77
74416;SHT31;62850;42.428;25.618;2023-04-25T07:35:59;15.69;72.96
74416;SHT31;62850;42.428;25.618;2023-04-25T07:38:25;15.73;72.11
74416;SHT31;62850;42.428;25.618;2023-04-25T07:40:51;15.79;71.53
74416;SHT31;62850;42.428;25.618;2023-04-25T07:43:16;15.79;70.79
74416;SHT31;62850;42.428;25.618;2023-04-25T07:45:45;15.89;70.15
74416;SHT31;62850;42.428;25.618;2023-04-25T07:48:11;15.97;69.89
74416;SHT31;62850;42.428;25.618;2023-04-25T07:50:36;16.01;69.24
74416;SHT31;62850;42.428;25.618;2023-04-25T07:53:02;16.04;69.74
74416;SHT31;62850;42.428;25.618;2023-04-25T07:55:28;16.10;68.73
74416;SHT31;62850;42.428;25.618;2023-04-25T07:57:53;16.10;69.18
74416;SHT31;62850;42.428;25.618;2023-04-25T08:00:19;16.15;69.31
74416;SHT31;62850;42.428;25.618;2023-04-25T08:02:45;16.15;68.85
74416;SHT31;62850;42.428;25.618;2023-04-25T08:05:10;16.18;70.35
74416;SHT31;62850;42.428;25.618;2023-04-25T08:07:40;16.29;68.75
74416;SHT31;62850;42.428;25.618;2023-04-25T08:10:06;16.39;68.20
74416;SHT31;62850;42.428;25.618;2023-04-25T08:12:32;16.66;67.53
74416;SHT31;62850;42.428;25.618;2023-04-25T08:14:57;16.73;66.54
74416;SHT31;62850;42.428;25.618;2023-04-25T08:17:23;16.73;66.52
74416;SHT31;62850;42.428;25.618;2023-04-25T08:19:49;16.81;66.08
74416;SHT31;62850;42.428;25.618;2023-04-25T08:22:14;17.14;65.16
74416;SHT31;62850;42.428;25.618;2023-04-25T08:24:41;17.61;62.98
74416;SHT31;62850;42.428;25.618;2023-04-25T08:27:06;18.03;62.61
74416;SHT31;62850;42.428;25.618;2023-04-25T08:29:34;18.51;60.90
74416;SHT31;62850;42.428;25.618;2023-04-25T08:32:00;18.95;59.16
74416;SHT31;62850;42.428;25.618;2023-04-25T08:34:25;19.09;58.04
74416;SHT31;62850;42.428;25.618;2023-04-25T08:36:51;19.30;58.06
74416;SHT31;62850;42.428;25.618;2023-04-25T08:39:16;19.56;55.97
74416;SHT31;62850;42.428;25.618;2023-04-25T08:41:42;19.88;56.35
74416;SHT31;62850;42.428;25.618;2023-04-25T08:44:10;20.04;55.29
74416;SHT31;62850;42.428;25.618;2023-04-25T08:46:38;20.24;53.81
74416;SHT31;62850;42.428;25.618;2023-04-25T08:49:07;20.41;53.87
74416;SHT31;62850;42.428;25.618;2023-04-25T08:51:32;20.71;53.39
74416;SHT31;62850;42.428;25.618;2023-04-25T08:54:12;20.79;52.20
74416;SHT31;62850;42.428;25.618;2023-04-25T08:56:44;20.86;51.71
74416;SHT31;62850;42.428;25.618;2023-04-25T08:59:11;20.96;51.35
74416;SHT31;62850;42.428;25.618;2023-04-25T09:01:37;20.97;50.58
74416;SHT31;62850;42.428;25.618;2023-04-25T09:04:03;20.68;52.11
74416;SHT31;62850;42.428;25.618;2023-04-25T09:06:29;21.01;51.26
74416;SHT31;62850;42.428;25.618;2023-04-25T09:09:02;21.00;51.08
74416;SHT31;62850;42.428;25.618;2023-04-25T09:11:29;21.03;51.10
74416;SHT31;62850;42.428;25.618;2023-04-25T09:19:23;21.61;50.03
74416;SHT31;62850;42.428;25.618;2023-04-25T09:21:50;21.72;52.87
74416;SHT31;62850;42.428;25.618;2023-04-25T09:24:16;21.82;50.76
74416;SHT31;62850;42.428;25.618;2023-04-25T09:26:44;21.74;49.46
74416;SHT31;62850;42.428;25.618;2023-04-25T09:29:10;21.82;49.56
74416;SHT31;62850;42.428;25.618;2023-04-25T09:31:36;21.92;49.82
74416;SHT31;62850;42.428;25.618;2023-04-25T09:34:01;22.00;50.25
74416;SHT31;62850;42.428;25.618;2023-04-25T09:36:28;22.23;49.12
74416;SHT31;62850;42.428;25.618;2023-04-25T09:38:54;22.33;49.16
74416;SHT31;62850;42.428;25.618;2023-04-25T09:41:24;22.46;49.00
74416;SHT31;62850;42.428;25.618;2023-04-25T09:43:50;22.58;48.41
74416;SHT31;62850;42.428;25.618;2023-04-25T09:46:16;22.71;48.63
74416;SHT31;62850;42.428;25.618;2023-04-25T09:48:49;22.91;47.52
74416;SHT31;62850;42.428;25.618;2023-04-25T09:51:15;23.05;47.40
74416;SHT31;62850;42.428;25.618;2023-04-25T09:53:46;23.07;48.53
74416;SHT31;62850;42.428;25.618;2023-04-25T09:56:14;23.39;47.38
74416;SHT31;62850;42.428;25.618;2023-04-25T09:58:41;23.36;46.73
74416;SHT31;62850;42.428;25.618;2023-04-25T10:01:08;23.43;46.82
74416;SHT31;62850;42.428;25.618;2023-04-25T10:03:36;23.62;45.90
74416;SHT31;62850;42.428;25.618;2023-04-25T10:06:05;23.63;45.87
74416;SHT31;62850;42.428;25.618;2023-04-25T10:08:34;23.81;46.14
74416;SHT31;62850;42.428;25.618;2023-04-25T10:11:04;23.92;47.08
74416;SHT31;62850;42.428;25.618;2023-04-25T10:13:31;24.15;45.43
74416;SHT31;62850;42.428;25.618;2023-04-25T10:16:02;24.32;44.05
74416;SHT31;62850;42.428;25.618;2023-04-25T10:18:29;24.32;45.48
74416;SHT31;62850;42.428;25.618;2023-04-25T10:21:01;24.34;44.49
74416;SHT31;62850;42.428;25.618;2023-04-25T10:23:27;24.49;44.32
74416;SHT31;62850;42.428;25.618;2023-04-25T10:25:54;24.39;44.33
74416;SHT31;62850;42.428;25.618;2023-04-25T10:28:20;24.61;44.97
74416;SHT31;62850;42.428;25.618;2023-04-25T10:31:03;24.59;43.75
74416;SHT31;62850;42.428;25.618;2023-04-25T10:33:41;24.62;44.08
74416;SHT31;62850;42.428;25.618;2023-04-25T10:36:11;24.00;44.74
74416;SHT31;62850;42.428;25.618;2023-04-25T10:38:37;23.86;45.83
74416;SHT31;62850;42.428;25.618;2023-04-25T10:41:07;24.07;45.23
74416;SHT31;62850;42.428;25.618;2023-04-25T10:43:38;24.39;44.76
74416;SHT31;62850;42.428;25.618;2023-04-25T10:46:14;24.56;44.29
74416;SHT31;62850;42.428;25.618;2023-04-25T10:48:54;24.62;44.45
74416;SHT31;62850;42.428;25.618;2023-04-25T10:54:02;24.73;44.03
74416;SHT31;62850;42.428;25.618;2023-04-25T11:01:43;24.42;44.39
74416;SHT31;62850;42.428;25.618;2023-04-25T11:04:33;23.97;45.12
74416;SHT31;62850;42.428;25.618;2023-04-25T11:09:28;22.20;43.15
74416;SHT31;62850;42.428;25.618;2023-04-25T11:11:58;21.17;44.25
74416;SHT31;62850;42.428;25.618;2023-04-25T11:14:25;20.77;45.51
74416;SHT31;62850;42.428;25.618;2023-04-25T11:16:58;20.42;48.94
74416;SHT31;62850;42.428;25.618;2023-04-25T11:19:26;20.28;48.76
74416;SHT31;62850;42.428;25.618;2023-04-25T11:21:58;20.56;48.94
74416;SHT31;62850;42.428;25.618;2023-04-25T11:24:31;20.46;49.05
74416;SHT31;62850;42.428;25.618;2023-04-25T11:27:04;20.77;48.74
74416;SHT31;62850;42.428;25.618;2023-04-25T11:29:32;21.37;47.63
74416;SHT31;62850;42.428;25.618;2023-04-25T11:31:58;21.86;46.09
74416;SHT31;62850;42.428;25.618;2023-04-25T11:34:26;22.02;46.58
74416;SHT31;62850;42.428;25.618;2023-04-25T11:36:52;21.92;46.53
74416;SHT31;62850;42.428;25.618;2023-04-25T11:39:19;21.88;46.63
74416;SHT31;62850;42.428;25.618;2023-04-25T11:41:44;21.75;47.75
74416;SHT31;62850;42.428;25.618;2023-04-25T11:44:10;21.38;48.50
74416;SHT31;62850;42.428;25.618;2023-04-25T11:46:36;20.99;50.47
74416;SHT31;62850;42.428;25.618;2023-04-25T11:49:02;20.87;49.61
74416;SHT31;62850;42.428;25.618;2023-04-25T11:51:28;20.62;49.52
74416;SHT31;62850;42.428;25.618;2023-04-25T11:53:53;20.38;50.53
74416;SHT31;62850;42.428;25.618;2023-04-25T11:56:20;20.38;50.14
74416;SHT31;62850;42.428;25.618;2023-04-25T12:01:35;20.14;50.85
74416;SHT31;62850;42.428;25.618;2023-04-25T12:04:21;20.10;51.25
74416;SHT31;62850;42.428;25.618;2023-04-25T12:06:49;20.11;50.98
74416;SHT31;62850;42.428;25.618;2023-04-25T12:09:20;20.08;50.75
74416;SHT31;62850;42.428;25.618;2023-04-25T12:11:56;20.00;50.56
74416;SHT31;62850;42.428;25.618;2023-04-25T12:14:23;20.08;50.06
74416;SHT31;62850;42.428;25.618;2023-04-25T12:16:50;20.08;50.65
74416;SHT31;62850;42.428;25.618;2023-04-25T12:19:17;20.29;49.94
74416;SHT31;62850;42.428;25.618;2023-04-25T12:21:43;20.69;49.73
74416;SHT31;62850;42.428;25.618;2023-04-25T12:24:15;20.77;49.63
74416;SHT31;62850;42.428;25.618;2023-04-25T12:29:20;20.73;50.75
74416;SHT31;62850;42.428;25.618;2023-04-25T12:31:46;20.42;50.64
74416;SHT31;62850;42.428;25.618;2023-04-25T12:34:12;20.26;51.99
74416;SHT31;62850;42.428;25.618;2023-04-25T12:36:38;20.08;51.88
74416;SHT31;62850;42.428;25.618;2023-04-25T12:39:04;19.84;53.93
74416;SHT31;62850;42.428;25.618;2023-04-25T12:41:30;19.87;54.37
74416;SHT31;62850;42.428;25.618;2023-04-25T12:43:56;20.26;53.98
74416;SHT31;62850;42.428;25.618;2023-04-25T12:46:22;20.66;51.87
74416;SHT31;62850;42.428;25.618;2023-04-25T12:48:48;21.26;50.35
74416;SHT31;62850;42.428;25.618;2023-04-25T12:51:14;21.57;49.34
74416;SHT31;62850;42.428;25.618;2023-04-25T12:53:40;21.32;49.14
74416;SHT31;62850;42.428;25.618;2023-04-25T12:56:09;21.01;47.77
74416;SHT31;62850;42.428;25.618;2023-04-25T12:58:35;21.31;49.18
74416;SHT31;62850;42.428;25.618;2023-04-25T13:01:00;21.11;47.05
74416;SHT31;62850;42.428;25.618;2023-04-25T13:03:26;20.80;48.37
74416;SHT31;62850;42.428;25.618;2023-04-25T13:05:52;20.82;48.78
74416;SHT31;62850;42.428;25.618;2023-04-25T13:08:21;20.97;48.33
74416;SHT31;62850;42.428;25.618;2023-04-25T13:10:47;21.10;48.77
74416;SHT31;62850;42.428;25.618;2023-04-25T13:13:13;21.63;47.58
74416;SHT31;62850;42.428;25.618;2023-04-25T13:15:38;21.81;46.53
74416;SHT31;62850;42.428;25.618;2023-04-25T13:18:04;21.85;47.50
74416;SHT31;62850;42.428;25.618;2023-04-25T13:20:33;21.95;47.24
74416;SHT31;62850;42.428;25.618;2023-04-25T13:22:58;22.40;46.22
74416;SHT31;62850;42.428;25.618;2023-04-25T13:25:23;22.40;45.00
74416;SHT31;62850;42.428;25.618;2023-04-25T13:27:50;22.72;44.16
74416;SHT31;62850;42.428;25.618;2023-04-25T13:30:15;22.57;44.47
74416;SHT31;62850;42.428;25.618;2023-04-25T13:32:41;22.35;45.78
74416;SHT31;62850;42.428;25.618;2023-04-25T13:35:11;22.20;46.06
74416;SHT31;62850;42.428;25.618;2023-04-25T13:37:38;21.85;47.63
74416;SHT31;62850;42.428;25.618;2023-04-25T13:40:09;21.55;47.80
74416;SHT31;62850;42.428;25.618;2023-04-25T13:42:37;21.47;48.04
74416;SHT31;62850;42.428;25.618;2023-04-25T13:45:03;21.28;48.14
74416;SHT31;62850;42.428;25.618;2023-04-25T13:47:29;20.90;47.57
74416;SHT31;62850;42.428;25.618;2023-04-25T13:49:55;20.11;50.68
74416;SHT31;62850;42.428;25.618;2023-04-25T13:52:21;19.83;52.48
74416;SHT31;62850;42.428;25.618;2023-04-25T13:54:46;19.50;53.46
74416;SHT31;62850;42.428;25.618;2023-04-25T13:57:12;19.50;53.44
74416;SHT31;62850;42.428;25.618;2023-04-25T13:59:38;19.54;54.20
74416;SHT31;62850;42.428;25.618;2023-04-25T14:02:04;19.59;54.00
74416;SHT31;62850;42.428;25.618;2023-04-25T14:04:30;19.60;53.76
74416;SHT31;62850;42.428;25.618;2023-04-25T14:06:56;19.67;54.04
74416;SHT31;62850;42.428;25.618;2023-04-25T14:09:21;19.77;54.09
74416;SHT31;62850;42.428;25.618;2023-04-25T14:11:51;19.70;53.89
74416;SHT31;62850;42.428;25.618;2023-04-25T14:14:18;19.59;53.52
74416;SHT31;62850;42.428;25.618;2023-04-25T14:16:43;19.40;54.37
74416;SHT31;62850;42.428;25.618;2023-04-25T14:19:09;19.30;54.39
74416;SHT31;62850;42.428;25.618;2023-04-25T14:21:34;18.79;56.89
74416;SHT31;62850;42.428;25.618;2023-04-25T14:24:00;18.74;57.49
74416;SHT31;62850;42.428;25.618;2023-04-25T14:26:26;18.64;57.75
74416;SHT31;62850;42.428;25.618;2023-04-25T14:28:52;18.44;58.53
74416;SHT31;62850;42.428;25.618;2023-04-25T14:31:17;18.07;59.78
74416;SHT31;62850;42.428;25.618;2023-04-25T14:33:42;17.99;60.09
74416;SHT31;62850;42.428;25.618;2023-04-25T14:36:09;17.90;60.67
74416;SHT31;62850;42.428;25.618;2023-04-25T14:38:35;17.54;60.86
74416;SHT31;62850;42.428;25.618;2023-04-25T14:41:00;17.42;61.33
74416;SHT31;62850;42.428;25.618;2023-04-25T14:43:26;17.10;62.39
74416;SHT31;62850;42.428;25.618;2023-04-25T14:45:51;16.87;62.24
74416;SHT31;62850;42.428;25.618;2023-04-25T14:48:18;16.76;62.81
74416;SHT31;62850;42.428;25.618;2023-04-25T14:50:47;16.62;64.44
74416;SHT31;62850;42.428;25.618;2023-04-25T14:53:13;16.49;67.01
74416;SHT31;62850;42.428;25.618;2023-04-25T14:55:38;16.15;69.16
74416;SHT31;62850;42.428;25.618;2023-04-25T14:58:04;16.05;71.23
74416;SHT31;62850;42.428;25.618;2023-04-25T15:00:30;16.31;69.42
74416;SHT31;62850;42.428;25.618;2023-04-25T15:02:57;16.47;68.67
74416;SHT31;62850;42.428;25.618;2023-04-25T15:05:23;16.69;65.63
74416;SHT31;62850;42.428;25.618;2023-04-25T15:07:48;16.96;66.90
74416;SHT31;62850;42.428;25.618;2023-04-25T15:10:14;17.21;65.14
74416;SHT31;62850;42.428;25.618;2023-04-25T15:12:44;17.37;64.63
74416;SHT31;62850;42.428;25.618;2023-04-25T15:15:10;17.11;64.74
74416;SHT31;62850;42.428;25.618;2023-04-25T15:17:40;17.07;65.29
74416;SHT31;62850;42.428;25.618;2023-04-25T15:20:07;16.81;64.78
74416;SHT31;62850;42.428;25.618;2023-04-25T15:22:35;16.26;66.55
74416;SHT31;62850;42.428;25.618;2023-04-25T15:25:01;16.24;66.99
74416;SHT31;62850;42.428;25.618;2023-04-25T15:27:26;15.98;67.72
74416;SHT31;62850;42.428;25.618;2023-04-25T15:29:52;15.98;68.34
74416;SHT31;62850;42.428;25.618;2023-04-25T15:32:18;15.97;67.89